createdAt,value
2022-12-20T00:01:32.805Z,38.20
2022-12-20T00:04:02.514Z,36.40
2022-12-20T00:06:30.111Z,36.77
2022-12-20T00:09:02.188Z,36.50
2022-12-20T00:11:30.073Z,37.53
2022-12-20T00:13:58.203Z,38.53
2022-12-20T00:16:29.310Z,39.00
2022-12-20T00:18:58.706Z,38.93
2022-12-20T00:21:26.810Z,37.67
2022-12-20T00:23:53.921Z,38.70
2022-12-20T00:26:25.885Z,38.57
2022-12-20T00:28:53.333Z,37.97
2022-12-20T00:31:22.301Z,38.20
2022-12-20T00:33:51.146Z,38.80
2022-12-20T00:36:19.786Z,37.87
2022-12-20T00:38:51.574Z,38.77
2022-12-20T00:41:21.288Z,39.33
2022-12-20T00:43:48.938Z,37.80
2022-12-20T00:46:17.676Z,38.33
2022-12-20T00:48:44.567Z,37.70
2022-12-20T00:51:24.109Z,38.37
2022-12-20T00:53:50.963Z,39.80
2022-12-20T00:56:18.857Z,38.83
2022-12-20T00:58:45.992Z,39.67
2022-12-20T01:01:25.366Z,40.93
2022-12-20T01:03:53.230Z,39.60
2022-12-20T01:06:21.239Z,39.00
2022-12-20T01:08:48.356Z,37.87
2022-12-20T01:11:21.327Z,39.20
2022-12-20T01:13:51.340Z,37.23
2022-12-20T01:16:25.305Z,38.70
2022-12-20T01:18:53.266Z,38.47
2022-12-20T01:21:22.730Z,40.43
2022-12-20T01:23:49.610Z,39.13
2022-12-20T01:26:19.226Z,38.37
2022-12-20T01:28:47.499Z,39.50
2022-12-20T01:31:17.242Z,37.17
2022-12-20T01:33:45.326Z,38.10
2022-12-20T01:36:15.114Z,38.63
2022-12-20T01:38:42.066Z,37.97
2022-12-20T01:41:16.732Z,36.97
2022-12-20T01:43:55.952Z,37.33
2022-12-20T01:46:44.031Z,36.00
2022-12-20T01:49:20.902Z,36.00
2022-12-20T01:51:52.146Z,35.57
2022-12-20T01:54:29.233Z,35.20
2022-12-20T01:57:00.946Z,37.13
2022-12-20T01:59:29.000Z,37.13
2022-12-20T02:02:05.055Z,36.37
2022-12-20T02:04:32.075Z,34.87
2022-12-20T02:07:00.475Z,35.43
2022-12-20T02:09:27.795Z,35.00
2022-12-20T02:12:03.565Z,33.63
2022-12-20T02:14:58.824Z,34.53
2022-12-20T02:17:47.122Z,33.97
2022-12-20T02:20:51.746Z,34.07
2022-12-20T02:23:40.085Z,34.90
2022-12-20T02:26:36.451Z,33.10
2022-12-20T02:29:33.314Z,31.17
2022-12-20T02:32:18.493Z,30.80
2022-12-20T02:34:46.670Z,30.73
2022-12-20T02:37:13.432Z,32.17
2022-12-20T02:39:42.986Z,32.13
2022-12-20T02:42:12.314Z,30.70
2022-12-20T02:45:09.150Z,29.93
2022-12-20T02:48:03.001Z,31.10
2022-12-20T02:50:38.213Z,28.23
2022-12-20T02:53:06.955Z,31.30
2022-12-20T02:55:53.892Z,29.97
2022-12-20T02:58:28.609Z,29.60
2022-12-20T03:00:59.716Z,29.37
2022-12-20T03:03:27.729Z,28.60
2022-12-20T03:05:56.423Z,29.10
2022-12-20T03:08:24.086Z,30.00
2022-12-20T03:10:52.747Z,28.60
2022-12-20T03:13:20.941Z,29.93
2022-12-20T03:16:01.815Z,30.47
2022-12-20T03:18:29.473Z,28.57
2022-12-20T03:20:56.919Z,28.20
2022-12-20T03:23:23.963Z,29.53
2022-12-20T03:25:51.169Z,28.27
2022-12-20T03:28:33.582Z,28.37
2022-12-20T03:31:00.850Z,27.00
2022-12-20T03:33:28.144Z,28.23
2022-12-20T03:35:58.352Z,30.10
2022-12-20T03:38:25.164Z,29.17
2022-12-20T03:40:52.304Z,28.17
2022-12-20T03:43:21.482Z,28.30
2022-12-20T03:45:49.733Z,28.77
2022-12-20T03:48:17.207Z,28.97
2022-12-20T03:50:44.403Z,28.17
2022-12-20T03:53:11.518Z,27.43
2022-12-20T03:55:38.138Z,27.67
2022-12-20T03:58:05.155Z,27.60
2022-12-20T04:00:35.046Z,27.07
2022-12-20T04:03:22.053Z,27.70
2022-12-20T04:05:48.993Z,28.67
2022-12-20T04:08:16.204Z,27.10
2022-12-20T04:11:01.913Z,26.57
2022-12-20T04:13:34.048Z,26.37
2022-12-20T04:16:01.545Z,26.57
2022-12-20T04:18:32.392Z,26.90
2022-12-20T04:21:01.785Z,27.87
2022-12-20T04:23:31.271Z,25.87
2022-12-20T04:25:58.734Z,27.50
2022-12-20T04:28:26.106Z,26.63
2022-12-20T04:30:54.516Z,25.83
2022-12-20T04:33:26.527Z,27.07
2022-12-20T04:35:54.423Z,28.20
2022-12-20T04:38:23.682Z,26.93
2022-12-20T04:40:53.534Z,26.50
2022-12-20T04:43:21.657Z,26.40
2022-12-20T04:45:51.202Z,24.27
2022-12-20T04:48:55.140Z,25.80
2022-12-20T04:51:07.055Z,25.43
2022-12-20T04:53:49.188Z,25.43
2022-12-20T04:56:45.273Z,25.90
2022-12-20T04:59:17.279Z,24.83
2022-12-20T05:01:47.136Z,26.73
2022-12-20T05:04:22.376Z,26.27
2022-12-20T05:06:49.100Z,25.63
2022-12-20T05:09:16.191Z,26.07
2022-12-20T05:11:43.554Z,24.80
2022-12-20T05:14:10.575Z,26.67
2022-12-20T05:16:37.699Z,24.97
2022-12-20T05:19:06.303Z,25.27
2022-12-20T05:21:56.751Z,24.10
2022-12-20T05:24:42.665Z,24.97
2022-12-20T05:27:25.279Z,23.93
2022-12-20T05:29:52.370Z,25.33
2022-12-20T05:32:20.723Z,22.97
2022-12-20T05:34:47.977Z,24.13
2022-12-20T05:37:16.253Z,23.47
2022-12-20T05:39:44.329Z,24.60
2022-12-20T05:42:18.102Z,23.03
2022-12-20T05:44:45.263Z,25.33
2022-12-20T05:47:12.136Z,24.00
2022-12-20T05:49:39.807Z,23.67
2022-12-20T05:52:09.434Z,24.90
2022-12-20T05:54:38.019Z,24.43
2022-12-20T05:57:09.645Z,22.97
2022-12-20T05:59:39.605Z,22.17
2022-12-20T06:02:11.179Z,23.17
2022-12-20T06:04:39.413Z,22.20
2022-12-20T06:07:15.409Z,23.03
2022-12-20T06:09:48.010Z,21.73
2022-12-20T06:12:17.793Z,23.03
2022-12-20T06:14:46.448Z,22.27
2022-12-20T06:17:14.095Z,22.63
2022-12-20T06:19:44.150Z,23.10
2022-12-20T06:22:14.538Z,21.70
2022-12-20T06:24:55.567Z,21.37
2022-12-20T06:27:26.563Z,21.87
2022-12-20T06:30:05.891Z,22.53
2022-12-20T06:32:44.491Z,22.90
2022-12-20T06:35:12.289Z,22.73
2022-12-20T06:37:40.658Z,22.87
2022-12-20T06:40:11.519Z,22.97
2022-12-20T06:42:38.840Z,22.40
2022-12-20T06:45:08.026Z,22.40
2022-12-20T06:47:35.763Z,28.50
2022-12-20T06:50:04.773Z,28.57
2022-12-20T06:52:31.763Z,35.63
2022-12-20T06:54:59.662Z,35.10
2022-12-20T06:57:26.988Z,30.47
2022-12-20T06:59:55.320Z,25.03
2022-12-20T07:02:23.546Z,23.33
2022-12-20T07:04:52.401Z,23.07
2022-12-20T07:07:19.777Z,21.27
2022-12-20T07:09:46.801Z,21.13
2022-12-20T07:12:13.555Z,23.53
2022-12-20T07:14:40.614Z,22.23
2022-12-20T07:17:07.883Z,20.60
2022-12-20T07:19:39.075Z,21.43
2022-12-20T07:22:06.363Z,21.10
2022-12-20T07:24:33.998Z,22.23
2022-12-20T07:27:01.665Z,21.37
2022-12-20T07:29:28.952Z,21.93
2022-12-20T07:31:55.895Z,23.13
2022-12-20T07:34:23.044Z,21.67
2022-12-20T07:36:50.438Z,22.23
2022-12-20T07:39:17.832Z,22.63
2022-12-20T07:41:44.964Z,21.23
2022-12-20T07:44:16.445Z,22.47
2022-12-20T07:46:43.394Z,22.03
2022-12-20T07:49:10.716Z,21.07
2022-12-20T07:51:43.599Z,22.10
2022-12-20T07:54:16.191Z,21.70
2022-12-20T07:56:50.285Z,20.73
2022-12-20T07:59:20.742Z,22.47
2022-12-20T08:01:48.540Z,22.73
2022-12-20T08:04:23.585Z,21.17
2022-12-20T08:06:52.074Z,25.23
2022-12-20T08:09:19.521Z,27.53
2022-12-20T08:11:50.071Z,24.17
2022-12-20T08:14:19.466Z,21.97
2022-12-20T08:16:46.544Z,22.50
2022-12-20T08:19:13.592Z,21.33
2022-12-20T08:21:40.345Z,24.33
2022-12-20T08:24:08.309Z,25.47
2022-12-20T08:26:40.515Z,22.70
2022-12-20T08:29:08.799Z,24.17
2022-12-20T08:31:43.248Z,24.00
2022-12-20T08:34:14.835Z,25.23
2022-12-20T08:36:41.574Z,22.27
2022-12-20T08:39:08.579Z,21.97
2022-12-20T08:41:36.793Z,26.47
2022-12-20T08:44:05.262Z,27.93
2022-12-20T08:46:32.195Z,25.60
2022-12-20T08:48:59.248Z,21.20
2022-12-20T08:51:26.077Z,22.37
2022-12-20T08:53:53.086Z,22.33
2022-12-20T08:56:20.173Z,27.40
2022-12-20T08:58:47.906Z,26.57
2022-12-20T09:01:18.094Z,22.83
2022-12-20T09:03:47.163Z,22.23
2022-12-20T09:06:20.131Z,21.73
2022-12-20T09:08:47.944Z,19.70
2022-12-20T09:11:19.222Z,19.63
2022-12-20T09:13:48.358Z,20.47
2022-12-20T09:16:19.005Z,20.10
2022-12-20T09:19:00.749Z,19.73
2022-12-20T09:21:29.880Z,21.80
2022-12-20T09:23:57.400Z,20.07
2022-12-20T09:26:24.745Z,20.80
2022-12-20T09:28:51.990Z,19.30
2022-12-20T09:31:22.809Z,20.37
2022-12-20T09:33:50.236Z,20.27
2022-12-20T09:36:19.534Z,21.80
2022-12-20T09:38:47.615Z,19.87
2022-12-20T09:41:40.508Z,20.53
2022-12-20T09:44:25.376Z,18.97
2022-12-20T09:47:03.543Z,19.43
2022-12-20T09:49:36.247Z,20.67
2022-12-20T09:52:20.994Z,21.80
2022-12-20T09:55:07.895Z,21.67
2022-12-20T09:57:53.329Z,22.43
2022-12-20T10:00:21.434Z,22.07
2022-12-20T10:03:06.117Z,20.37
2022-12-20T10:05:48.381Z,21.20
2022-12-20T10:08:27.481Z,21.73
2022-12-20T10:10:58.238Z,20.83
2022-12-20T10:13:56.901Z,22.73
2022-12-20T10:16:36.881Z,19.63
2022-12-20T10:19:13.709Z,21.57
2022-12-20T10:21:52.868Z,20.97
2022-12-20T10:24:24.639Z,19.30
2022-12-20T10:26:51.891Z,20.53
2022-12-20T10:29:21.166Z,19.30
2022-12-20T10:31:58.665Z,20.13
2022-12-20T10:34:26.419Z,20.57
2022-12-20T10:37:11.885Z,20.43
2022-12-20T10:39:44.232Z,19.90
2022-12-20T10:42:41.102Z,20.43
2022-12-20T10:45:37.338Z,22.77
2022-12-20T10:48:23.735Z,21.03
2022-12-20T10:51:15.460Z,21.40
2022-12-20T10:54:04.077Z,21.77
2022-12-20T10:56:36.441Z,21.37
2022-12-20T10:59:28.000Z,22.73
2022-12-20T11:01:54.972Z,22.17
2022-12-20T11:04:31.501Z,22.73
2022-12-20T11:07:00.292Z,23.03
2022-12-20T11:09:33.862Z,22.90
2022-12-20T11:12:16.662Z,21.90
2022-12-20T11:14:46.085Z,23.17
2022-12-20T11:17:36.607Z,25.67
2022-12-20T11:20:16.297Z,24.87
2022-12-20T11:23:20.512Z,24.40
2022-12-20T11:26:05.612Z,23.47
2022-12-20T11:28:53.408Z,23.17
2022-12-20T11:31:44.378Z,24.07
2022-12-20T11:34:21.001Z,24.07
2022-12-20T11:36:55.593Z,23.30
2022-12-20T11:39:51.813Z,23.53
2022-12-20T11:42:55.729Z,27.23
2022-12-20T11:45:31.659Z,24.53
2022-12-20T11:48:46.806Z,25.13
2022-12-20T11:51:26.750Z,25.30
2022-12-20T11:54:09.247Z,27.80
2022-12-20T11:56:43.982Z,24.27
2022-12-20T11:59:31.658Z,24.63
2022-12-20T12:02:18.551Z,24.50
2022-12-20T12:04:55.435Z,25.30
2022-12-20T12:07:29.530Z,24.80
2022-12-20T12:10:07.908Z,24.50
2022-12-20T12:12:43.488Z,24.13
2022-12-20T12:15:35.231Z,24.97
2022-12-20T12:18:19.511Z,25.57
2022-12-20T12:20:52.605Z,26.83
2022-12-20T12:23:19.287Z,26.07
2022-12-20T12:25:46.439Z,25.30
2022-12-20T12:28:14.587Z,24.57
2022-12-20T12:30:47.699Z,25.57
2022-12-20T12:33:24.391Z,24.43
2022-12-20T12:36:02.402Z,25.53
2022-12-20T12:38:47.691Z,26.20
2022-12-20T12:41:23.512Z,24.77
2022-12-20T12:44:05.380Z,26.87
2022-12-20T12:46:36.363Z,26.20
2022-12-20T12:49:10.347Z,26.23
2022-12-20T12:51:49.087Z,27.60
2022-12-20T12:54:22.542Z,26.13
2022-12-20T12:56:51.343Z,26.13
2022-12-20T12:59:33.067Z,25.37
2022-12-20T13:02:04.033Z,26.67
2022-12-20T13:04:57.576Z,28.43
2022-12-20T13:07:26.408Z,27.00
2022-12-20T13:09:53.167Z,27.10
2022-12-20T13:12:38.523Z,27.87
2022-12-20T13:15:20.805Z,26.37
2022-12-20T13:17:52.687Z,27.07
2022-12-20T13:20:26.164Z,26.17
2022-12-20T13:23:08.288Z,27.63
2022-12-20T13:25:37.667Z,27.57
2022-12-20T13:28:16.949Z,26.77
2022-12-20T13:30:45.520Z,26.73
2022-12-20T13:33:36.278Z,27.50
2022-12-20T13:36:24.517Z,26.77
2022-12-20T13:38:54.243Z,27.13
2022-12-20T13:41:40.566Z,28.90
2022-12-20T13:44:19.374Z,26.77
2022-12-20T13:46:53.998Z,27.67
2022-12-20T13:49:29.430Z,26.40
2022-12-20T13:52:11.616Z,32.77
2022-12-20T13:54:44.516Z,30.43
2022-12-20T13:57:21.581Z,30.13
2022-12-20T13:59:52.919Z,29.70
2022-12-20T14:02:27.755Z,28.93
2022-12-20T14:05:17.715Z,29.77
2022-12-20T14:07:47.907Z,32.40
2022-12-20T14:10:22.592Z,30.80
2022-12-20T14:12:53.443Z,32.53
2022-12-20T14:15:33.411Z,32.27
2022-12-20T14:18:17.720Z,28.70
2022-12-20T14:21:06.521Z,30.07
2022-12-20T14:23:45.812Z,26.50
2022-12-20T14:26:16.842Z,29.23
2022-12-20T14:28:46.845Z,29.67
2022-12-20T14:31:32.308Z,29.63
2022-12-20T14:34:05.614Z,29.50
2022-12-20T14:36:34.404Z,30.93
2022-12-20T14:39:01.279Z,29.83
2022-12-20T14:41:28.236Z,30.90
2022-12-20T14:43:56.382Z,31.20
2022-12-20T14:46:23.955Z,29.67
2022-12-20T14:49:14.692Z,29.67
2022-12-20T14:51:41.814Z,30.93
2022-12-20T14:54:39.867Z,28.27
2022-12-20T14:57:11.882Z,29.37
2022-12-20T14:59:38.777Z,30.27
2022-12-20T15:02:34.559Z,31.17
2022-12-20T15:05:27.448Z,30.87
2022-12-20T15:07:54.888Z,29.63
2022-12-20T15:10:21.645Z,30.67
2022-12-20T15:12:48.685Z,30.60
2022-12-20T15:15:30.075Z,31.47
2022-12-20T15:17:57.130Z,30.30
2022-12-20T15:20:23.972Z,31.10
2022-12-20T15:22:51.019Z,30.33
2022-12-20T15:25:18.360Z,31.53
2022-12-20T15:27:45.531Z,29.63
2022-12-20T15:30:16.264Z,32.57
2022-12-20T15:32:54.709Z,29.70
2022-12-20T15:35:22.948Z,29.90
2022-12-20T15:37:49.953Z,30.87
2022-12-20T15:40:16.748Z,31.13
2022-12-20T15:42:43.823Z,30.57
2022-12-20T15:45:14.495Z,30.90
2022-12-20T15:47:42.772Z,34.30
2022-12-20T15:50:11.715Z,30.90
2022-12-20T15:52:38.773Z,32.23
2022-12-20T15:55:07.065Z,35.07
2022-12-20T15:57:34.683Z,31.80
2022-12-20T16:00:03.256Z,32.67
2022-12-20T16:02:38.670Z,31.73
2022-12-20T16:05:06.067Z,33.43
2022-12-20T16:07:33.204Z,32.07
2022-12-20T16:10:00.116Z,32.13
2022-12-20T16:12:34.601Z,31.53
2022-12-20T16:15:01.685Z,31.97
2022-12-20T16:17:28.872Z,34.00
2022-12-20T16:19:55.816Z,31.13
2022-12-20T16:22:24.358Z,37.10
2022-12-20T16:24:51.929Z,33.50
2022-12-20T16:27:20.368Z,33.10
2022-12-20T16:29:47.428Z,34.40
2022-12-20T16:32:20.105Z,32.57
2022-12-20T16:34:48.903Z,35.37
2022-12-20T16:37:16.367Z,33.93
2022-12-20T16:39:43.233Z,31.53
2022-12-20T16:42:20.979Z,30.83
2022-12-20T16:44:52.152Z,32.60
2022-12-20T16:47:19.347Z,34.90
2022-12-20T16:49:52.249Z,36.03
2022-12-20T16:52:22.053Z,36.73
2022-12-20T16:54:49.715Z,48.63
2022-12-20T16:57:16.892Z,41.77
2022-12-20T16:59:43.851Z,39.17
2022-12-20T17:02:25.953Z,43.07
2022-12-20T17:04:53.346Z,36.00
2022-12-20T17:07:20.999Z,38.33
2022-12-20T17:12:32.230Z,42.70
2022-12-20T17:14:58.977Z,37.00
2022-12-20T17:17:26.048Z,47.97
2022-12-20T17:19:52.845Z,34.13
2022-12-20T17:25:04.622Z,39.83
2022-12-20T17:27:31.854Z,37.20
2022-12-20T17:29:58.568Z,38.37
2022-12-20T17:32:26.132Z,41.60
2022-12-20T17:34:53.238Z,40.17
2022-12-20T17:37:21.473Z,35.80
2022-12-20T17:39:48.777Z,36.63
2022-12-20T17:42:16.683Z,36.50
2022-12-20T17:44:43.495Z,40.50
2022-12-20T17:47:11.685Z,39.70
2022-12-20T17:49:38.864Z,40.30
2022-12-20T17:52:06.046Z,47.13
2022-12-20T17:54:39.510Z,42.50
2022-12-20T17:57:16.816Z,40.13
2022-12-20T17:59:44.315Z,38.77
2022-12-20T18:02:25.534Z,36.87
2022-12-20T18:04:54.126Z,36.27
2022-12-20T18:07:21.451Z,37.53
2022-12-20T18:09:48.761Z,38.33
2022-12-20T18:12:16.436Z,40.27
2022-12-20T18:14:43.181Z,45.73
2022-12-20T18:17:10.927Z,40.43
2022-12-20T18:19:38.000Z,41.97
2022-12-20T18:22:05.178Z,42.27
2022-12-20T18:24:32.385Z,38.73
2022-12-20T18:26:59.443Z,35.37
2022-12-20T18:29:26.210Z,40.83
2022-12-20T18:31:53.289Z,36.80
2022-12-20T18:34:20.534Z,38.23
2022-12-20T18:36:47.521Z,38.27
2022-12-20T18:39:14.739Z,38.50
2022-12-20T18:41:43.837Z,40.00
2022-12-20T18:44:11.772Z,34.30
2022-12-20T18:46:39.131Z,39.83
2022-12-20T18:49:06.092Z,35.90
2022-12-20T18:51:38.614Z,34.73
2022-12-20T18:54:12.168Z,37.57
2022-12-20T18:56:39.613Z,37.50
2022-12-20T18:59:11.976Z,39.17
2022-12-20T19:01:41.090Z,37.73
2022-12-20T19:04:08.675Z,38.20
2022-12-20T19:06:36.871Z,41.50
2022-12-20T19:09:06.102Z,36.03
2022-12-20T19:11:33.626Z,43.70
2022-12-20T19:14:00.436Z,37.60
2022-12-20T19:16:31.817Z,40.93
2022-12-20T19:18:59.984Z,34.33
2022-12-20T19:21:29.502Z,32.63
2022-12-20T19:23:59.534Z,33.67
2022-12-20T19:26:28.465Z,35.70
2022-12-20T19:28:56.181Z,33.77
2022-12-20T19:31:26.431Z,32.47
2022-12-20T19:33:55.790Z,33.83
2022-12-20T19:36:25.532Z,33.80
2022-12-20T19:38:55.856Z,32.33
2022-12-20T19:41:25.403Z,34.60
2022-12-20T19:43:52.681Z,37.07
2022-12-20T19:46:28.135Z,33.70
2022-12-20T19:48:56.900Z,32.50
2022-12-20T19:51:24.034Z,35.87
2022-12-20T19:53:53.224Z,35.73
2022-12-20T19:56:23.236Z,35.00
2022-12-20T19:58:50.173Z,31.83
2022-12-20T20:01:18.261Z,33.80
2022-12-20T20:03:45.637Z,34.93
2022-12-20T20:06:13.088Z,35.47
2022-12-20T20:08:40.797Z,34.83
2022-12-20T20:11:10.111Z,32.90
2022-12-20T20:13:38.639Z,34.37
2022-12-20T20:16:07.237Z,34.83
2022-12-20T20:18:36.233Z,32.80
2022-12-20T20:21:09.127Z,29.87
2022-12-20T20:23:37.188Z,32.33
2022-12-20T20:26:10.386Z,33.70
2022-12-20T20:28:45.148Z,32.07
2022-12-20T20:31:14.964Z,31.77
2022-12-20T20:33:43.165Z,32.93
2022-12-20T20:36:14.330Z,31.77
2022-12-20T20:38:41.605Z,31.77
2022-12-20T20:41:09.317Z,32.60
2022-12-20T20:43:39.180Z,31.13
2022-12-20T20:46:08.306Z,33.80
2022-12-20T20:48:35.866Z,33.30
2022-12-20T20:51:03.890Z,31.23
2022-12-20T20:53:33.813Z,32.83
2022-12-20T20:56:07.551Z,32.77
2022-12-20T20:58:35.693Z,33.27
2022-12-20T21:01:05.405Z,33.83
2022-12-20T21:03:32.864Z,35.70
2022-12-20T21:06:36.568Z,34.60
2022-12-20T21:08:47.306Z,31.97
2022-12-20T21:11:14.498Z,34.03
2022-12-20T21:13:41.386Z,33.90
2022-12-20T21:16:16.009Z,33.57
2022-12-20T21:18:42.936Z,34.37
2022-12-20T21:21:12.215Z,36.53
2022-12-20T21:23:43.114Z,35.23
2022-12-20T21:26:10.221Z,31.30
2022-12-20T21:28:36.986Z,34.90
2022-12-20T21:31:09.130Z,33.80
2022-12-20T21:33:36.299Z,33.53
2022-12-20T21:36:06.033Z,31.40
2022-12-20T21:38:33.220Z,35.83
2022-12-20T21:41:01.955Z,32.83
2022-12-20T21:43:29.858Z,34.47
2022-12-20T21:45:57.323Z,32.53
2022-12-20T21:48:25.509Z,31.57
2022-12-20T21:51:08.830Z,30.70
2022-12-20T21:53:40.709Z,30.37
2022-12-20T21:56:08.163Z,30.93
2022-12-20T21:58:35.012Z,32.43
2022-12-20T22:01:04.574Z,29.50
2022-12-20T22:03:31.816Z,31.43
2022-12-20T22:05:59.132Z,30.13
2022-12-20T22:08:27.233Z,30.20
2022-12-20T22:11:05.953Z,32.10
2022-12-20T22:13:40.735Z,32.50
2022-12-20T22:16:11.730Z,31.20
2022-12-20T22:18:39.558Z,30.90
2022-12-20T22:21:11.799Z,32.50
2022-12-20T22:23:39.218Z,27.73
2022-12-20T22:26:09.476Z,29.17
2022-12-20T22:28:38.285Z,30.47
2022-12-20T22:31:08.264Z,30.40
2022-12-20T22:33:35.852Z,31.67
2022-12-20T22:36:03.807Z,29.00
2022-12-20T22:38:30.587Z,31.73
2022-12-20T22:41:15.637Z,30.80
2022-12-20T22:43:44.624Z,31.87
2022-12-20T22:48:57.968Z,30.20
2022-12-20T22:51:27.264Z,28.77
2022-12-20T22:53:57.762Z,31.00
2022-12-20T22:56:25.727Z,29.50
2022-12-20T22:58:52.530Z,29.63
2022-12-20T23:01:20.410Z,29.63
2022-12-20T23:03:48.097Z,30.93
2022-12-20T23:06:18.880Z,30.43
2022-12-20T23:08:46.167Z,29.93
2022-12-20T23:11:38.498Z,29.00
2022-12-20T23:14:24.782Z,30.40
2022-12-20T23:16:51.979Z,29.03
2022-12-20T23:19:18.936Z,28.63
2022-12-20T23:22:04.543Z,29.27
2022-12-20T23:24:31.393Z,29.37
2022-12-20T23:26:59.064Z,28.77
2022-12-20T23:29:25.909Z,29.87
2022-12-20T23:31:53.016Z,29.70
2022-12-20T23:34:19.907Z,29.03
2022-12-20T23:36:47.007Z,30.37
2022-12-20T23:39:13.880Z,28.53
2022-12-20T23:41:40.869Z,30.57
2022-12-20T23:44:07.780Z,29.50
2022-12-20T23:46:34.934Z,28.70
2022-12-20T23:49:01.800Z,29.37
2022-12-20T23:51:28.895Z,28.60
2022-12-20T23:53:55.812Z,29.70
2022-12-20T23:56:23.582Z,30.30
2022-12-20T23:58:53.243Z,30.00
